Time;durP1;ratioP1;P1;durP2;ratioP2;P2;SDS_P1;SDS_P2;PMS_P1;PMS_P2;Temp;Humidity;BMP_temperature;BMP_pressure;BME280_temperature;BME280_humidity;BME280_pressure;Samples;Min_cycle;Max_cycle;Signal;HPM_P1;HPM_P2
2022/09/08 00:03:55;;;;;;;1.03;0.80;;;;;;;;;;8294607;28;20049;-57
2022/09/08 00:07:55;;;;;;;1.30;0.80;;;;;;;;;;8291807;28;20094;-57
2022/09/08 00:11:57;;;;;;;1.83;1.02;;;;;;;;;;8291188;28;20026;-56
2022/09/08 00:15:57;;;;;;;3.67;0.98;;;;;;;;;;8288987;28;20085;-56
2022/09/08 00:19:57;;;;;;;2.50;1.20;;;;;;;;;;8295064;28;20029;-57
2022/09/08 00:23:57;;;;;;;1.48;1.00;;;;;;;;;;8292396;28;21048;-56
2022/09/08 00:27:58;;;;;;;1.27;1.00;;;;;;;;;;8292387;28;20083;-57
2022/09/08 00:31:59;;;;;;;2.05;0.95;;;;;;;;;;8287510;28;20721;-57
2022/09/08 00:35:59;;;;;;;2.83;1.00;;;;;;;;;;8296558;28;20136;-57
2022/09/08 00:40:00;;;;;;;1.52;0.90;;;;;;;;;;8293151;28;20025;-56
2022/09/08 00:44:19;;;;;;;1.17;1.00;;;;;;;;;;8291588;28;20029;-56
2022/09/08 00:48:21;;;;;;;1.20;1.00;;;;;;;;;;8291947;28;20156;-56
2022/09/08 00:52:22;;;;;;;1.70;0.93;;;;;;;;;;8295473;28;20032;-56
2022/09/08 00:56:22;;;;;;;1.45;0.90;;;;;;;;;;8298567;28;20716;-57
2022/09/08 01:00:23;;;;;;;2.78;0.80;;;;;;;;;;8294861;28;20132;-57
2022/09/08 01:04:23;;;;;;;2.42;1.00;;;;;;;;;;8298054;28;20027;-56
2022/09/08 01:13:04;;;;;;;2.67;1.15;;;;;;;;;;8293388;28;20497;-57
2022/09/08 01:17:13;;;;;;;2.47;1.20;;;;;;;;;;8297267;28;20063;-57
2022/09/08 01:21:41;;;;;;;1.70;1.00;;;;;;;;;;8299230;28;20063;-57
2022/09/08 01:25:53;;;;;;;1.20;1.10;;;;;;;;;;8297461;28;20029;-59
2022/09/08 01:29:56;;;;;;;3.42;1.40;;;;;;;;;;8298154;28;20477;-57
2022/09/08 01:33:58;;;;;;;3.22;1.20;;;;;;;;;;8298159;28;20045;-57
2022/09/08 01:37:58;;;;;;;1.48;1.30;;;;;;;;;;8296402;28;20818;-56
2022/09/08 01:41:59;;;;;;;2.67;1.42;;;;;;;;;;8299331;28;20086;-57
2022/09/08 01:46:00;;;;;;;1.73;0.90;;;;;;;;;;8299476;28;20037;-57
2022/09/08 01:50:00;;;;;;;1.55;1.10;;;;;;;;;;8301803;28;20075;-57
2022/09/08 01:54:12;;;;;;;3.00;1.10;;;;;;;;;;8302947;28;20060;-57
2022/09/08 01:58:12;;;;;;;3.10;1.20;;;;;;;;;;8297154;28;20215;-57
2022/09/08 02:02:13;;;;;;;1.40;1.00;;;;;;;;;;8292474;28;20461;-57
2022/09/08 02:06:13;;;;;;;2.37;1.10;;;;;;;;;;8282205;28;20036;-57
2022/09/08 02:10:13;;;;;;;2.10;1.13;;;;;;;;;;8292794;28;20065;-57
2022/09/08 02:14:16;;;;;;;1.77;1.27;;;;;;;;;;8298474;28;20032;-57
2022/09/08 02:18:17;;;;;;;1.40;1.08;;;;;;;;;;8295069;28;20044;-57
2022/09/08 02:22:17;;;;;;;1.25;1.15;;;;;;;;;;8296478;28;20512;-57
2022/09/08 02:26:19;;;;;;;3.43;1.53;;;;;;;;;;8296111;28;20025;-57
2022/09/08 02:30:19;;;;;;;4.60;1.40;;;;;;;;;;8292968;28;20026;-57
2022/09/08 02:34:20;;;;;;;3.60;1.40;;;;;;;;;;8295664;28;20028;-57
2022/09/08 02:38:21;;;;;;;2.08;1.40;;;;;;;;;;8293518;28;20052;-59
2022/09/08 02:42:23;;;;;;;2.28;1.13;;;;;;;;;;8295064;28;20061;-55
2022/09/08 02:46:24;;;;;;;1.88;1.30;;;;;;;;;;8293724;28;20573;-54
2022/09/08 02:50:24;;;;;;;2.75;1.38;;;;;;;;;;8295271;28;20125;-54
2022/09/08 02:54:24;;;;;;;1.60;1.20;;;;;;;;;;8292537;28;20067;-55
2022/09/08 02:58:25;;;;;;;2.65;1.42;;;;;;;;;;8296381;28;20032;-54
2022/09/08 03:02:25;;;;;;;5.22;1.90;;;;;;;;;;8291203;28;20484;-55
2022/09/08 03:06:25;;;;;;;7.18;1.40;;;;;;;;;;8291832;28;20017;-58
2022/09/08 03:10:26;;;;;;;1.77;1.50;;;;;;;;;;8297103;28;20030;-56
2022/09/08 03:14:26;;;;;;;2.60;1.52;;;;;;;;;;8295202;28;20025;-56
2022/09/08 03:18:26;;;;;;;4.55;1.40;;;;;;;;;;8293739;28;20053;-56
2022/09/08 03:22:26;;;;;;;1.33;1.20;;;;;;;;;;8291462;28;20120;-56
2022/09/08 03:26:26;;;;;;;5.93;1.27;;;;;;;;;;8298352;28;20028;-56
2022/09/08 03:30:27;;;;;;;1.43;1.23;;;;;;;;;;8296130;28;20375;-56
2022/09/08 03:34:27;;;;;;;2.08;1.48;;;;;;;;;;8294052;28;20834;-56
2022/09/08 03:38:27;;;;;;;4.67;1.53;;;;;;;;;;8291005;28;20029;-56
2022/09/08 03:42:31;;;;;;;2.40;1.45;;;;;;;;;;8293319;28;20025;-56
2022/09/08 03:46:31;;;;;;;3.60;1.40;;;;;;;;;;8292417;28;20440;-56
2022/09/08 03:50:32;;;;;;;5.63;1.50;;;;;;;;;;8292786;28;20508;-56
2022/09/08 03:54:47;;;;;;;3.83;1.17;;;;;;;;;;8291534;28;20033;-56
2022/09/08 03:58:47;;;;;;;2.53;1.20;;;;;;;;;;8293631;28;20029;-56
2022/09/08 04:02:48;;;;;;;2.03;1.20;;;;;;;;;;8287133;28;20128;-56
2022/09/08 04:06:48;;;;;;;1.90;1.23;;;;;;;;;;8272398;28;20029;-56
2022/09/08 04:10:49;;;;;;;2.58;1.23;;;;;;;;;;8274093;28;20515;-56
2022/09/08 04:14:49;;;;;;;1.85;1.30;;;;;;;;;;8272644;28;20029;-56
2022/09/08 04:18:49;;;;;;;2.53;1.10;;;;;;;;;;8290477;28;20048;-56
2022/09/08 04:22:50;;;;;;;3.33;1.13;;;;;;;;;;8289537;28;20131;-55
2022/09/08 04:26:50;;;;;;;1.30;1.20;;;;;;;;;;8293453;28;20044;-56
2022/09/08 04:30:50;;;;;;;1.10;1.00;;;;;;;;;;8289673;28;20101;-56
2022/09/08 04:34:51;;;;;;;2.30;1.10;;;;;;;;;;8292776;28;20030;-56
2022/09/08 04:38:52;;;;;;;1.98;1.10;;;;;;;;;;8290357;28;20029;-57
2022/09/08 04:42:52;;;;;;;2.10;1.10;;;;;;;;;;8294392;28;20021;-56
2022/09/08 04:46:52;;;;;;;1.38;1.05;;;;;;;;;;8287419;28;20084;-56
2022/09/08 04:50:52;;;;;;;3.00;1.10;;;;;;;;;;8290534;28;20075;-56
2022/09/08 04:54:53;;;;;;;2.25;0.90;;;;;;;;;;8292224;28;20155;-56
2022/09/08 04:58:53;;;;;;;1.55;0.98;;;;;;;;;;8290603;28;20028;-56
2022/09/08 05:02:53;;;;;;;5.10;0.90;;;;;;;;;;8289795;28;20152;-56
2022/09/08 05:06:54;;;;;;;1.83;1.20;;;;;;;;;;8287594;28;20159;-56
2022/09/08 05:10:54;;;;;;;1.23;1.10;;;;;;;;;;8290845;28;20057;-56
2022/09/08 05:14:55;;;;;;;1.75;1.05;;;;;;;;;;8295384;28;20805;-56
2022/09/08 05:18:59;;;;;;;1.30;1.00;;;;;;;;;;8292705;28;20122;-56
2022/09/08 05:22:59;;;;;;;2.33;1.10;;;;;;;;;;8289166;28;20025;-56
2022/09/08 05:26:59;;;;;;;1.55;1.00;;;;;;;;;;8290383;28;20027;-56
2022/09/08 05:31:00;;;;;;;1.85;1.02;;;;;;;;;;8288483;28;20910;-56
2022/09/08 05:35:00;;;;;;;2.88;1.00;;;;;;;;;;8294354;28;20339;-57
2022/09/08 05:39:01;;;;;;;0.93;0.88;;;;;;;;;;8297407;28;20932;-57
2022/09/08 05:43:02;;;;;;;0.90;0.90;;;;;;;;;;8298596;28;20029;-57
2022/09/08 05:47:02;;;;;;;2.88;1.00;;;;;;;;;;8295823;28;20038;-57
2022/09/08 05:51:07;;;;;;;2.75;1.00;;;;;;;;;;8295556;28;20512;-57
2022/09/08 05:55:08;;;;;;;1.13;1.02;;;;;;;;;;8298877;28;20081;-57
2022/09/08 05:59:09;;;;;;;1.23;0.95;;;;;;;;;;8295916;28;20022;-57
2022/09/08 06:03:11;;;;;;;1.20;1.10;;;;;;;;;;8298119;28;20091;-57
2022/09/08 06:07:11;;;;;;;1.27;1.17;;;;;;;;;;8294766;28;20017;-57
2022/09/08 06:11:11;;;;;;;3.90;1.55;;;;;;;;;;8297114;28;20040;-56
2022/09/08 06:15:11;;;;;;;1.30;1.20;;;;;;;;;;8293122;28;20033;-56
2022/09/08 06:19:12;;;;;;;1.23;1.05;;;;;;;;;;8296124;28;20377;-61
2022/09/08 06:23:12;;;;;;;1.20;1.10;;;;;;;;;;8296193;28;20028;-57
2022/09/08 06:27:22;;;;;;;1.30;1.10;;;;;;;;;;8295751;28;20525;-57
2022/09/08 06:31:27;;;;;;;1.27;1.17;;;;;;;;;;8293697;28;20136;-57
2022/09/08 06:35:34;;;;;;;1.80;1.10;;;;;;;;;;8297740;28;20028;-57
2022/09/08 06:39:48;;;;;;;1.05;1.00;;;;;;;;;;8296025;28;20219;-57
2022/09/08 06:43:50;;;;;;;1.27;1.17;;;;;;;;;;8293424;28;20034;-57
2022/09/08 06:47:56;;;;;;;2.28;1.20;;;;;;;;;;8293902;28;20106;-57
2022/09/08 06:52:15;;;;;;;2.92;1.30;;;;;;;;;;8291751;28;20128;-57
2022/09/08 06:56:36;;;;;;;1.25;1.20;;;;;;;;;;8295345;28;20022;-59
2022/09/08 07:00:41;;;;;;;1.80;1.33;;;;;;;;;;8291218;28;20041;-59
2022/09/08 07:05:02;;;;;;;1.45;1.20;;;;;;;;;;8295896;28;20040;-58
2022/09/08 07:09:09;;;;;;;1.02;1.00;;;;;;;;;;8292554;28;20121;-59
2022/09/08 07:13:27;;;;;;;1.35;1.13;;;;;;;;;;8289849;28;20028;-57
2022/09/08 07:17:45;;;;;;;1.20;1.10;;;;;;;;;;8293086;28;20067;-59
2022/09/08 07:21:49;;;;;;;1.65;1.30;;;;;;;;;;8293207;28;20918;-58
2022/09/08 07:25:52;;;;;;;1.75;1.10;;;;;;;;;;8292017;28;20327;-58
2022/09/08 07:29:56;;;;;;;3.70;1.27;;;;;;;;;;8293431;28;20491;-58
2022/09/08 07:33:59;;;;;;;1.90;1.10;;;;;;;;;;8295778;28;20474;-57
2022/09/08 07:38:03;;;;;;;2.65;1.00;;;;;;;;;;8295199;28;20668;-59
2022/09/08 07:42:04;;;;;;;1.77;1.00;;;;;;;;;;8292683;28;20022;-58
2022/09/08 07:46:23;;;;;;;0.98;0.80;;;;;;;;;;8294439;28;20042;-58
2022/09/08 07:55:02;;;;;;;1.38;0.70;;;;;;;;;;8292078;28;20107;-58
2022/09/08 07:59:09;;;;;;;1.67;0.75;;;;;;;;;;8292677;28;20031;-58
2022/09/08 08:03:19;;;;;;;0.80;0.75;;;;;;;;;;8291829;28;20067;-59
2022/09/08 08:07:22;;;;;;;0.88;0.77;;;;;;;;;;8291653;28;20368;-58
2022/09/08 08:11:54;;;;;;;1.02;0.85;;;;;;;;;;8292592;28;20039;-57
2022/09/08 08:16:07;;;;;;;3.50;0.95;;;;;;;;;;8260134;28;20064;-59
2022/09/08 08:20:15;;;;;;;2.53;0.90;;;;;;;;;;8291782;28;20090;-59
2022/09/08 08:24:34;;;;;;;1.58;0.95;;;;;;;;;;8292682;28;20190;-59
2022/09/08 08:28:38;;;;;;;1.00;0.70;;;;;;;;;;8294297;28;20045;-59
2022/09/08 08:32:41;;;;;;;2.75;0.90;;;;;;;;;;8290248;28;20049;-60
2022/09/08 08:36:43;;;;;;;1.00;0.80;;;;;;;;;;8289776;28;20024;-59
2022/09/08 08:40:57;;;;;;;0.70;0.70;;;;;;;;;;8288577;28;21975;-60
2022/09/08 08:45:09;;;;;;;0.57;0.57;;;;;;;;;;8291828;28;20021;-60
2022/09/08 08:49:36;;;;;;;1.35;0.60;;;;;;;;;;8305737;28;20220;-60
2022/09/08 08:53:44;;;;;;;0.70;0.70;;;;;;;;;;8305150;28;20135;-59
2022/09/08 08:57:44;;;;;;;0.52;0.52;;;;;;;;;;8304112;28;20045;-58
2022/09/08 09:01:50;;;;;;;1.08;0.60;;;;;;;;;;8289418;28;20094;-60
2022/09/08 09:05:53;;;;;;;0.80;0.70;;;;;;;;;;8290751;28;20028;-58
2022/09/08 09:09:53;;;;;;;;;;;;;;;;;;8289298;28;20021;-57
2022/09/08 09:14:10;;;;;;;1.73;0.95;;;;;;;;;;8296462;28;19918;-57
2022/09/08 09:18:25;;;;;;;3.25;0.80;;;;;;;;;;8298076;28;20049;-58
2022/09/08 09:22:36;;;;;;;1.80;0.52;;;;;;;;;;8299115;28;20024;-57
2022/09/08 09:26:37;;;;;;;0.90;0.75;;;;;;;;;;8297526;28;20088;-57
2022/09/08 09:30:44;;;;;;;1.75;0.90;;;;;;;;;;8297364;28;20091;-60
2022/09/08 09:34:44;;;;;;;0.85;0.70;;;;;;;;;;8296966;28;20026;-59
2022/09/08 09:38:52;;;;;;;1.25;0.80;;;;;;;;;;8297844;28;20023;-58
2022/09/08 09:42:57;;;;;;;1.52;0.80;;;;;;;;;;8297008;28;20029;-58
2022/09/08 09:47:13;;;;;;;6.47;0.82;;;;;;;;;;8298487;28;20103;-57
2022/09/08 09:51:13;;;;;;;1.52;0.75;;;;;;;;;;8295533;28;20053;-58
2022/09/08 09:55:32;;;;;;;1.88;1.05;;;;;;;;;;8297037;28;20025;-57
2022/09/08 09:59:45;;;;;;;1.58;0.80;;;;;;;;;;8297168;28;20816;-58
2022/09/08 10:03:54;;;;;;;2.23;0.80;;;;;;;;;;8295926;28;20126;-58
2022/09/08 10:07:57;;;;;;;0.82;0.68;;;;;;;;;;8295104;28;21000;-58
2022/09/08 10:12:12;;;;;;;1.85;1.00;;;;;;;;;;8296812;28;20106;-58
2022/09/08 10:16:31;;;;;;;1.13;0.80;;;;;;;;;;8295728;28;20110;-59
2022/09/08 10:20:55;;;;;;;1.52;0.85;;;;;;;;;;8294887;28;20029;-57
2022/09/08 10:24:56;;;;;;;0.90;0.70;;;;;;;;;;8295243;28;20030;-57
2022/09/08 10:28:59;;;;;;;1.13;0.80;;;;;;;;;;8289963;28;20022;-57
2022/09/08 10:33:06;;;;;;;1.27;0.80;;;;;;;;;;8289141;28;20535;-57
2022/09/08 10:37:21;;;;;;;0.80;0.80;;;;;;;;;;8293331;28;20127;-57
2022/09/08 10:41:21;;;;;;;1.55;0.80;;;;;;;;;;8292565;28;21161;-58
2022/09/08 10:45:30;;;;;;;2.20;0.73;;;;;;;;;;8294302;28;20041;-60
2022/09/08 10:49:36;;;;;;;3.20;0.80;;;;;;;;;;8295495;28;20478;-57
2022/09/08 10:53:53;;;;;;;1.75;0.98;;;;;;;;;;8295452;28;20710;-59
2022/09/08 10:57:53;;;;;;;1.88;0.80;;;;;;;;;;8296082;28;20564;-57
2022/09/08 11:01:54;;;;;;;1.35;0.77;;;;;;;;;;8293108;28;20034;-57
2022/09/08 11:05:57;;;;;;;0.70;0.70;;;;;;;;;;8292537;28;20021;-59
2022/09/08 11:10:16;;;;;;;1.92;0.80;;;;;;;;;;8294464;28;20898;-59
2022/09/08 11:14:35;;;;;;;3.33;1.23;;;;;;;;;;8293821;28;20847;-59
2022/09/08 11:18:45;;;;;;;1.02;0.80;;;;;;;;;;8291179;28;20067;-59
2022/09/08 11:23:00;;;;;;;1.63;0.70;;;;;;;;;;8291369;28;20043;-58
2022/09/08 11:27:09;;;;;;;3.92;0.98;;;;;;;;;;8294152;28;20674;-58
2022/09/08 11:31:28;;;;;;;2.05;1.25;;;;;;;;;;8291554;28;20041;-59
2022/09/08 11:35:28;;;;;;;2.15;0.70;;;;;;;;;;8295563;28;20025;-58
2022/09/08 11:39:48;;;;;;;0.90;0.70;;;;;;;;;;8290260;28;20126;-58
2022/09/08 11:43:48;;;;;;;2.60;0.80;;;;;;;;;;8291373;28;20068;-59
2022/09/08 11:47:49;;;;;;;2.40;1.08;;;;;;;;;;8293939;28;20049;-66
2022/09/08 11:52:07;;;;;;;3.75;1.10;;;;;;;;;;8287756;28;20099;-60
2022/09/08 11:56:16;;;;;;;3.95;0.93;;;;;;;;;;8295134;28;20096;-60
2022/09/08 12:00:31;;;;;;;2.65;0.90;;;;;;;;;;8288564;28;20151;-60
2022/09/08 12:04:39;;;;;;;1.67;0.70;;;;;;;;;;8289778;28;20025;-59
2022/09/08 12:08:58;;;;;;;2.35;0.93;;;;;;;;;;8289072;28;20026;-59
2022/09/08 12:13:11;;;;;;;1.98;0.80;;;;;;;;;;8292017;28;20026;-60
2022/09/08 12:17:18;;;;;;;2.20;0.90;;;;;;;;;;8293906;28;20037;-58
2022/09/08 12:21:21;;;;;;;3.20;1.10;;;;;;;;;;8289356;28;20079;-59
2022/09/08 12:25:21;;;;;;;;;;;;;;;;;;8293148;28;20623;-59
2022/09/08 12:29:42;;;;;;;2.13;0.95;;;;;;;;;;8290757;28;19913;-59
2022/09/08 12:33:44;;;;;;;3.00;0.80;;;;;;;;;;8289573;28;20061;-57
2022/09/08 12:37:53;;;;;;;2.40;0.90;;;;;;;;;;8291035;28;20035;-56
2022/09/08 12:41:55;;;;;;;3.17;0.88;;;;;;;;;;8287770;28;20029;-57
2022/09/08 12:45:58;;;;;;;5.70;1.17;;;;;;;;;;8288484;28;20050;-58
2022/09/08 12:49:59;;;;;;;;;;;;;;;;;;8292033;28;20017;-57
2022/09/08 12:54:02;;;;;;;3.67;1.00;;;;;;;;;;8293535;28;20442;-57
2022/09/08 12:58:04;;;;;;;2.72;0.95;;;;;;;;;;8292423;28;20025;-57
2022/09/08 13:02:13;;;;;;;2.83;0.90;;;;;;;;;;8290113;28;20037;-59
2022/09/08 13:06:31;;;;;;;2.72;1.00;;;;;;;;;;8289124;28;20478;-57
2022/09/08 13:10:33;;;;;;;3.08;0.80;;;;;;;;;;8287146;28;20026;-57
2022/09/08 13:14:52;;;;;;;4.83;1.07;;;;;;;;;;8289792;28;21074;-56
2022/09/08 13:19:07;;;;;;;3.60;1.08;;;;;;;;;;8287263;28;20745;-56
2022/09/08 13:23:25;;;;;;;3.30;0.93;;;;;;;;;;8277199;28;20022;-57
2022/09/08 13:27:31;;;;;;;3.20;0.77;;;;;;;;;;8289500;28;20022;-57
2022/09/08 13:31:37;;;;;;;3.05;1.02;;;;;;;;;;8291850;28;20573;-59
2022/09/08 13:35:37;;;;;;;2.70;0.90;;;;;;;;;;8288080;28;20572;-58
2022/09/08 13:40:17;;;;;;;3.85;0.90;;;;;;;;;;8285693;28;20390;-58
2022/09/08 13:44:36;;;;;;;2.90;0.80;;;;;;;;;;8167612;28;20031;-58
2022/09/08 13:48:46;;;;;;;3.60;0.70;;;;;;;;;;8274073;28;20480;-58
2022/09/08 13:52:46;;;;;;;2.58;1.00;;;;;;;;;;8318655;28;20024;-58
2022/09/08 13:57:05;;;;;;;3.10;0.80;;;;;;;;;;8322256;28;20408;-58
2022/09/08 14:01:21;;;;;;;1.98;1.00;;;;;;;;;;8321036;28;20087;-58
2022/09/08 14:05:41;;;;;;;4.32;1.05;;;;;;;;;;8321320;28;20022;-57
2022/09/08 14:10:01;;;;;;;1.55;0.93;;;;;;;;;;8321568;28;20104;-58
2022/09/08 14:14:23;;;;;;;3.67;1.08;;;;;;;;;;8327237;28;20025;-59
2022/09/08 14:18:42;;;;;;;3.38;1.02;;;;;;;;;;8351169;28;20037;-57
2022/09/08 14:23:00;;;;;;;3.55;1.02;;;;;;;;;;8324806;28;20040;-57
2022/09/08 14:27:04;;;;;;;2.70;1.05;;;;;;;;;;8325011;28;20049;-58
2022/09/08 14:31:10;;;;;;;3.53;1.27;;;;;;;;;;8326603;28;20076;-59
2022/09/08 14:35:33;;;;;;;4.25;0.93;;;;;;;;;;8322157;28;20055;-58
2022/09/08 14:39:56;;;;;;;3.42;1.30;;;;;;;;;;8322300;28;20045;-58
2022/09/08 14:44:06;;;;;;;3.17;1.15;;;;;;;;;;8334427;28;20060;-58
2022/09/08 14:48:11;;;;;;;4.22;1.50;;;;;;;;;;8325262;28;20123;-58
2022/09/08 14:52:18;;;;;;;5.32;1.00;;;;;;;;;;8326144;28;20371;-58
2022/09/08 14:56:21;;;;;;;3.42;1.00;;;;;;;;;;8325539;28;20657;-58
2022/09/08 15:00:22;;;;;;;2.70;1.13;;;;;;;;;;8326992;28;20043;-58
2022/09/08 15:04:25;;;;;;;2.05;0.90;;;;;;;;;;8324861;28;20058;-59
2022/09/08 15:08:28;;;;;;;1.85;1.00;;;;;;;;;;8323550;28;20025;-58
2022/09/08 15:12:53;;;;;;;2.72;1.00;;;;;;;;;;8324655;28;20046;-58
2022/09/08 15:17:01;;;;;;;3.60;1.20;;;;;;;;;;8323919;28;20047;-57
2022/09/08 15:21:05;;;;;;;5.30;1.38;;;;;;;;;;8319812;28;20051;-57
2022/09/08 15:25:17;;;;;;;4.50;1.55;;;;;;;;;;8325739;28;20024;-59
2022/09/08 15:29:24;;;;;;;5.70;1.42;;;;;;;;;;8323808;28;20056;-59
2022/09/08 15:33:33;;;;;;;5.28;1.77;;;;;;;;;;8324970;28;20028;-59
2022/09/08 15:37:46;;;;;;;3.33;1.30;;;;;;;;;;8322582;28;20029;-59
2022/09/08 15:41:50;;;;;;;3.95;1.48;;;;;;;;;;8318736;28;20028;-58
2022/09/08 15:46:11;;;;;;;4.40;1.30;;;;;;;;;;8325818;28;20040;-58
2022/09/08 15:50:27;;;;;;;4.00;1.38;;;;;;;;;;8323660;28;20108;-59
2022/09/08 15:54:34;;;;;;;4.40;1.33;;;;;;;;;;8324805;28;20024;-58
2022/09/08 15:58:35;;;;;;;5.38;1.40;;;;;;;;;;8322865;28;20041;-59
2022/09/08 16:02:54;;;;;;;8.07;1.60;;;;;;;;;;8322558;28;20072;-59
2022/09/08 16:07:02;;;;;;;2.80;1.45;;;;;;;;;;8322557;28;20020;-59
2022/09/08 16:11:11;;;;;;;3.03;1.33;;;;;;;;;;8320820;28;20021;-58
2022/09/08 16:15:17;;;;;;;3.45;1.10;;;;;;;;;;8321726;28;20682;-60
2022/09/08 16:19:22;;;;;;;5.03;1.50;;;;;;;;;;8323695;28;20032;-59
2022/09/08 16:23:28;;;;;;;5.05;1.35;;;;;;;;;;8314982;28;20060;-59
2022/09/08 16:27:34;;;;;;;3.63;1.38;;;;;;;;;;8324836;28;20029;-60
2022/09/08 16:31:46;;;;;;;3.00;1.25;;;;;;;;;;8317334;28;20058;-60
2022/09/08 16:35:55;;;;;;;1.55;1.15;;;;;;;;;;8320692;28;20021;-60
2022/09/08 16:40:05;;;;;;;3.45;1.10;;;;;;;;;;8322766;28;20969;-59
2022/09/08 16:44:14;;;;;;;2.13;1.00;;;;;;;;;;8321546;28;20021;-60
2022/09/08 16:48:37;;;;;;;2.90;1.20;;;;;;;;;;8319800;28;20093;-59
2022/09/08 16:52:56;;;;;;;2.85;1.10;;;;;;;;;;8319408;28;20082;-60
2022/09/08 16:57:05;;;;;;;1.77;1.10;;;;;;;;;;8324059;28;20034;-58
2022/09/08 17:01:32;;;;;;;4.30;1.13;;;;;;;;;;8320458;28;20041;-60
2022/09/08 17:05:32;;;;;;;3.97;1.35;;;;;;;;;;8300695;28;20025;-58
2022/09/08 17:09:50;;;;;;;1.45;0.90;;;;;;;;;;8318986;28;20168;-59
2022/09/08 17:13:50;;;;;;;2.90;1.10;;;;;;;;;;8322019;28;20037;-60
2022/09/08 17:17:56;;;;;;;4.00;1.30;;;;;;;;;;8321743;28;20387;-60
2022/09/08 17:22:15;;;;;;;3.33;1.08;;;;;;;;;;8321106;28;20248;-58
2022/09/08 17:26:41;;;;;;;5.38;1.10;;;;;;;;;;8320454;28;20027;-58
2022/09/08 17:30:54;;;;;;;2.33;1.02;;;;;;;;;;8302984;28;20037;-59
2022/09/08 17:34:55;;;;;;;2.73;0.83;;;;;;;;;;8327538;28;20021;-59
2022/09/08 17:38:57;;;;;;;2.05;1.20;;;;;;;;;;8329975;28;20111;-59
2022/09/08 17:42:59;;;;;;;1.40;0.80;;;;;;;;;;8330204;28;20032;-59
2022/09/08 17:47:11;;;;;;;1.77;0.80;;;;;;;;;;8330038;28;20036;-60
2022/09/08 17:51:20;;;;;;;2.90;1.00;;;;;;;;;;8328546;28;20973;-60
2022/09/08 17:55:34;;;;;;;1.42;0.80;;;;;;;;;;8329804;28;20109;-60
2022/09/08 17:59:35;;;;;;;;;;;;;;;;;;8330192;28;20021;-59
2022/09/08 18:03:43;;;;;;;2.63;1.00;;;;;;;;;;8324770;28;19927;-58
2022/09/08 18:07:48;;;;;;;3.40;1.05;;;;;;;;;;8328049;28;20466;-58
2022/09/08 18:11:54;;;;;;;3.95;0.90;;;;;;;;;;8327962;28;20119;-59
2022/09/08 18:16:06;;;;;;;3.75;0.80;;;;;;;;;;8327758;28;20794;-60
2022/09/08 18:20:38;;;;;;;2.83;1.13;;;;;;;;;;8329498;28;20844;-58
2022/09/08 18:24:40;;;;;;;2.35;0.90;;;;;;;;;;8328242;28;20037;-60
2022/09/08 18:28:59;;;;;;;2.90;0.95;;;;;;;;;;8327737;28;20021;-60
2022/09/08 18:33:12;;;;;;;2.60;1.08;;;;;;;;;;8328579;28;20101;-58
2022/09/08 18:37:15;;;;;;;3.35;0.75;;;;;;;;;;8326407;28;20513;-58
2022/09/08 18:41:34;;;;;;;1.92;0.93;;;;;;;;;;8326843;28;20028;-58
2022/09/08 18:45:34;;;;;;;1.77;0.98;;;;;;;;;;8327883;28;20040;-58
2022/09/08 18:49:38;;;;;;;2.10;0.82;;;;;;;;;;8329868;28;20020;-59
2022/09/08 18:53:55;;;;;;;2.33;0.80;;;;;;;;;;8328017;28;20083;-58
2022/09/08 18:58:18;;;;;;;3.38;0.90;;;;;;;;;;8330910;28;20024;-58
2022/09/08 19:02:23;;;;;;;2.87;0.93;;;;;;;;;;8329308;28;20037;-59
2022/09/08 19:06:29;;;;;;;5.75;0.90;;;;;;;;;;8328694;28;20691;-59
2022/09/08 19:10:35;;;;;;;2.78;0.73;;;;;;;;;;8324275;28;20051;-59
2022/09/08 19:14:47;;;;;;;2.03;0.80;;;;;;;;;;8325479;28;20694;-58
2022/09/08 19:18:48;;;;;;;2.17;0.80;;;;;;;;;;8325406;28;20524;-58
2022/09/08 19:22:56;;;;;;;2.55;0.70;;;;;;;;;;8324397;28;20450;-59
2022/09/08 19:27:06;;;;;;;1.65;0.70;;;;;;;;;;8324576;28;20033;-58
2022/09/08 19:31:15;;;;;;;1.95;0.80;;;;;;;;;;8324499;28;20044;-59
2022/09/08 19:35:19;;;;;;;3.25;1.02;;;;;;;;;;8326994;28;20129;-60
2022/09/08 19:39:19;;;;;;;2.92;0.93;;;;;;;;;;8324608;28;20021;-59
2022/09/08 19:43:19;;;;;;;3.28;1.02;;;;;;;;;;8326608;28;20118;-59
2022/09/08 19:47:30;;;;;;;5.30;1.02;;;;;;;;;;8326639;28;20822;-59
2022/09/08 19:51:36;;;;;;;3.92;0.95;;;;;;;;;;8328521;28;20370;-59
2022/09/08 19:55:44;;;;;;;2.08;0.80;;;;;;;;;;8325804;28;20128;-58
2022/09/08 19:59:55;;;;;;;4.93;0.90;;;;;;;;;;8325444;28;20394;-59
2022/09/08 20:04:30;;;;;;;1.85;0.70;;;;;;;;;;8326148;28;20048;-59
2022/09/08 20:08:31;;;;;;;3.50;0.93;;;;;;;;;;8271073;28;20036;-59
2022/09/08 20:12:31;;;;;;;2.08;1.00;;;;;;;;;;8326178;28;20059;-58
2022/09/08 20:16:54;;;;;;;3.38;0.95;;;;;;;;;;8327845;28;20100;-59
2022/09/08 20:20:57;;;;;;;4.07;1.00;;;;;;;;;;8324734;28;20039;-59
2022/09/08 20:25:04;;;;;;;2.17;0.88;;;;;;;;;;8326207;28;20048;-59
2022/09/08 20:29:11;;;;;;;2.80;0.80;;;;;;;;;;8324205;28;20866;-59
2022/09/08 20:33:14;;;;;;;4.38;1.10;;;;;;;;;;8325381;28;20041;-59
2022/09/08 20:37:17;;;;;;;3.83;0.80;;;;;;;;;;8323041;28;20020;-59
2022/09/08 20:41:25;;;;;;;3.17;1.20;;;;;;;;;;8326373;28;20063;-59
2022/09/08 20:45:35;;;;;;;4.90;0.90;;;;;;;;;;8323332;28;20355;-59
2022/09/08 20:49:45;;;;;;;3.40;0.90;;;;;;;;;;8328601;28;20029;-59
2022/09/08 20:53:52;;;;;;;1.80;0.75;;;;;;;;;;8322616;28;20032;-58
2022/09/08 20:57:55;;;;;;;2.65;0.82;;;;;;;;;;8327390;28;20885;-59
2022/09/08 21:02:10;;;;;;;2.83;0.98;;;;;;;;;;8324388;28;20033;-59
2022/09/08 21:06:12;;;;;;;3.60;1.15;;;;;;;;;;8327838;28;20025;-59
2022/09/08 21:10:35;;;;;;;3.70;1.00;;;;;;;;;;8328007;28;20089;-58
2022/09/08 21:14:35;;;;;;;4.88;1.17;;;;;;;;;;8324831;28;20060;-58
2022/09/08 21:18:46;;;;;;;1.50;0.73;;;;;;;;;;8329696;28;20048;-59
2022/09/08 21:22:49;;;;;;;2.17;0.80;;;;;;;;;;8327545;28;20024;-59
2022/09/08 21:26:55;;;;;;;3.33;1.00;;;;;;;;;;8331167;28;20029;-58
2022/09/08 21:31:08;;;;;;;2.17;0.70;;;;;;;;;;8328887;28;20132;-58
2022/09/08 21:35:18;;;;;;;2.20;0.88;;;;;;;;;;8332537;28;21334;-59
2022/09/08 21:39:22;;;;;;;1.38;0.70;;;;;;;;;;8330084;28;20029;-59
2022/09/08 21:43:31;;;;;;;2.63;0.70;;;;;;;;;;8328258;28;20028;-58
2022/09/08 21:47:35;;;;;;;3.25;0.80;;;;;;;;;;8328901;28;20040;-59
2022/09/08 21:51:35;;;;;;;;;;;;;;;;;;8329280;28;20057;-59
2022/09/08 21:55:39;;;;;;;5.43;1.10;;;;;;;;;;8328158;28;19935;-58
2022/09/08 21:59:49;;;;;;;1.35;0.75;;;;;;;;;;8329134;28;20465;-59
2022/09/08 22:03:51;;;;;;;4.88;1.00;;;;;;;;;;8327692;28;20128;-58
2022/09/08 22:08:00;;;;;;;1.55;0.98;;;;;;;;;;8329331;28;20714;-59
2022/09/08 22:12:17;;;;;;;3.15;0.70;;;;;;;;;;8327019;28;20124;-58
2022/09/08 22:16:21;;;;;;;4.32;0.90;;;;;;;;;;8328265;28;20067;-59
2022/09/08 22:20:22;;;;;;;2.22;0.80;;;;;;;;;;8326838;28;20032;-58
2022/09/08 22:24:30;;;;;;;3.70;0.90;;;;;;;;;;8326352;28;20024;-59
2022/09/08 22:28:32;;;;;;;3.45;0.90;;;;;;;;;;8332814;28;20021;-59
2022/09/08 22:32:35;;;;;;;4.97;1.08;;;;;;;;;;8328597;28;20628;-58
2022/09/08 22:36:55;;;;;;;2.53;0.90;;;;;;;;;;8329034;28;20025;-59
2022/09/08 22:41:02;;;;;;;2.97;0.90;;;;;;;;;;8330256;28;20043;-58
2022/09/08 22:45:13;;;;;;;2.40;0.82;;;;;;;;;;8329453;28;20057;-59
2022/09/08 22:49:49;;;;;;;2.63;0.85;;;;;;;;;;8328044;28;20041;-58
2022/09/08 22:53:58;;;;;;;2.20;0.95;;;;;;;;;;8254775;28;20043;-57
2022/09/08 22:57:58;;;;;;;2.70;0.88;;;;;;;;;;8329912;28;20017;-58
2022/09/08 23:02:02;;;;;;;4.88;1.00;;;;;;;;;;8327189;28;20042;-58
2022/09/08 23:06:26;;;;;;;2.25;0.80;;;;;;;;;;8329055;28;20037;-57
2022/09/08 23:10:29;;;;;;;5.63;0.90;;;;;;;;;;8326345;28;20036;-59
2022/09/08 23:14:49;;;;;;;2.60;0.68;;;;;;;;;;8327194;28;20600;-57
2022/09/08 23:18:51;;;;;;;0.98;0.68;;;;;;;;;;8325393;28;20041;-57
2022/09/08 23:22:51;;;;;;;3.80;1.20;;;;;;;;;;8320802;28;20040;-57
2022/09/08 23:27:02;;;;;;;2.23;0.80;;;;;;;;;;8326463;28;20114;-58
2022/09/08 23:31:02;;;;;;;3.63;0.88;;;;;;;;;;8324102;28;20282;-58
2022/09/08 23:35:09;;;;;;;2.10;0.80;;;;;;;;;;8326454;28;20016;-58
2022/09/08 23:39:19;;;;;;;1.80;0.90;;;;;;;;;;8322835;28;20033;-59
2022/09/08 23:43:19;;;;;;;1.38;0.68;;;;;;;;;;8327158;28;20051;-57
2022/09/08 23:47:26;;;;;;;2.17;0.73;;;;;;;;;;8325100;28;20058;-58
2022/09/08 23:51:38;;;;;;;2.60;0.90;;;;;;;;;;8325199;28;20029;-57
2022/09/08 23:55:44;;;;;;;3.65;0.77;;;;;;;;;;8325464;28;20131;-57
2022/09/08 23:59:44;;;;;;;1.52;0.60;;;;;;;;;;8327770;28;20091;-58
